Time;durP1;ratioP1;P1;durP2;ratioP2;P2;SDS_P1;SDS_P2;PMS_P1;PMS_P2;Temp;Humidity;BMP_temperature;BMP_pressure;BME280_temperature;BME280_humidity;BME280_pressure;Samples;Min_cycle;Max_cycle;Signal;HPM_P1;HPM_P2
2023/07/23 00:01:22;;;;;;;6.38;2.00;;;;;;;17.47;100.00;99827.09;4962987;28;20237;-75
2023/07/23 00:03:49;;;;;;;11.80;3.55;;;;;;;17.40;100.00;99831.72;4962643;28;20225;-75
2023/07/23 00:06:17;;;;;;;6.35;1.90;;;;;;;17.37;100.00;99830.94;4957967;28;20761;-76
2023/07/23 00:08:43;;;;;;;9.52;3.17;;;;;;;17.35;100.00;99838.13;4951059;28;20229;-74
2023/07/23 00:11:10;;;;;;;10.52;3.17;;;;;;;17.32;100.00;99844.44;4966196;28;20686;-75
2023/07/23 00:13:37;;;;;;;6.68;2.10;;;;;;;17.19;100.00;99843.91;4960829;28;20233;-76
2023/07/23 00:16:04;;;;;;;9.80;3.30;;;;;;;17.17;100.00;99847.53;4969099;28;20348;-76
2023/07/23 00:18:31;;;;;;;8.50;2.65;;;;;;;17.11;100.00;99851.25;4959276;28;20236;-75
2023/07/23 00:20:58;;;;;;;18.08;4.95;;;;;;;17.08;100.00;99854.00;4959647;28;20228;-75
2023/07/23 00:23:24;;;;;;;9.85;2.85;;;;;;;17.02;100.00;99858.63;4963986;28;20232;-75
2023/07/23 00:25:51;;;;;;;9.93;2.90;;;;;;;16.98;100.00;99865.84;4947665;28;20230;-76
2023/07/23 00:28:18;;;;;;;6.95;2.08;;;;;;;16.92;100.00;99869.56;4964703;28;20229;-75
2023/07/23 00:30:44;;;;;;;7.63;2.40;;;;;;;16.92;100.00;99882.03;4959301;28;20229;-76
2023/07/23 00:33:11;;;;;;;7.00;2.15;;;;;;;16.92;100.00;99890.91;4963111;28;20291;-75
2023/07/23 00:35:38;;;;;;;8.55;2.67;;;;;;;17.01;100.00;99895.16;4961703;28;20224;-76
2023/07/23 00:38:05;;;;;;;8.98;2.63;;;;;;;16.90;100.00;99891.84;4958217;28;20241;-75
2023/07/23 00:40:31;;;;;;;6.85;2.10;;;;;;;16.89;100.00;99901.66;4943228;28;20236;-75
2023/07/23 00:42:58;;;;;;;21.20;5.53;;;;;;;16.82;100.00;99894.69;4957441;28;20233;-75
2023/07/23 00:45:24;;;;;;;9.20;2.83;;;;;;;16.81;100.00;99908.09;4957121;28;20224;-76
2023/07/23 00:47:51;;;;;;;17.00;4.25;;;;;;;16.65;100.00;99902.25;4957634;28;20232;-74
2023/07/23 00:50:18;;;;;;;7.85;2.30;;;;;;;16.62;100.00;99912.97;4950502;28;20668;-76
2023/07/23 00:52:45;;;;;;;7.97;2.40;;;;;;;16.47;100.00;99926.69;4941144;28;20221;-76
2023/07/23 00:55:11;;;;;;;8.10;2.53;;;;;;;16.48;100.00;99934.66;4962305;28;20237;-76
2023/07/23 00:57:38;;;;;;;8.02;2.72;;;;;;;16.44;100.00;99948.09;4945209;28;20238;-75
2023/07/23 01:00:07;;;;;;;10.00;2.90;;;;;;;16.34;100.00;99958.09;4935334;28;20249;-75
2023/07/23 01:02:34;;;;;;;9.05;2.65;;;;;;;16.42;100.00;99971.28;4946053;28;20240;-74
2023/07/23 01:05:02;;;;;;;14.27;3.72;;;;;;;16.38;100.00;99969.59;4956415;28;20232;-75
2023/07/23 01:07:29;;;;;;;8.25;2.42;;;;;;;16.30;100.00;99964.41;4946383;28;20320;-76
2023/07/23 01:09:56;;;;;;;13.63;3.92;;;;;;;16.26;100.00;99974.28;4946160;28;20241;-75
2023/07/23 01:12:23;;;;;;;7.35;2.15;;;;;;;16.18;100.00;99970.00;4950069;28;20238;-75
2023/07/23 01:14:50;;;;;;;17.98;4.85;;;;;;;16.07;100.00;99980.91;4941337;28;20232;-75
2023/07/23 01:17:18;;;;;;;5.78;1.77;;;;;;;16.10;100.00;99993.31;4944769;28;20240;-76
2023/07/23 01:19:45;;;;;;;8.15;2.47;;;;;;;16.04;100.00;99991.66;4935957;28;20271;-76
2023/07/23 01:22:11;;;;;;;10.82;3.20;;;;;;;16.06;100.00;99991.63;4959028;28;20236;-76
2023/07/23 01:24:38;;;;;;;9.75;3.00;;;;;;;16.03;100.00;99999.69;4960028;28;20237;-74
2023/07/23 01:27:05;;;;;;;7.85;2.28;;;;;;;16.04;100.00;99996.97;4953839;28;20241;-75
2023/07/23 01:29:31;;;;;;;9.05;2.70;;;;;;;15.90;100.00;99983.03;4951471;28;20229;-76
2023/07/23 01:31:58;;;;;;;14.57;3.85;;;;;;;15.79;100.00;99985.91;4951675;28;20240;-74
2023/07/23 01:34:25;;;;;;;10.75;3.05;;;;;;;15.89;100.00;100000.81;4957090;28;20276;-76
2023/07/23 01:36:52;;;;;;;17.00;4.18;;;;;;;15.82;100.00;99999.19;4958102;28;20233;-75
2023/07/23 01:39:20;;;;;;;8.80;2.72;;;;;;;15.87;100.00;99999.97;4940761;28;20229;-76
2023/07/23 01:41:46;;;;;;;11.50;3.22;;;;;;;15.92;100.00;100000.78;4935678;28;20231;-76
2023/07/23 01:44:13;;;;;;;7.78;2.30;;;;;;;15.98;100.00;100005.09;4949478;28;20232;-76
2023/07/23 01:46:40;;;;;;;8.73;2.67;;;;;;;16.06;100.00;99997.81;4944043;28;20276;-76
2023/07/23 01:49:06;;;;;;;8.48;2.70;;;;;;;16.12;100.00;100004.81;4953985;28;20236;-75
2023/07/23 01:51:33;;;;;;;12.65;3.72;;;;;;;16.12;100.00;99997.69;4954167;28;20240;-75
2023/07/23 01:53:59;;;;;;;15.52;3.92;;;;;;;16.05;100.00;99985.41;4949048;28;20695;-75
2023/07/23 01:56:26;;;;;;;11.02;3.25;;;;;;;15.97;100.00;99990.00;4949918;28;20281;-75
2023/07/23 01:58:53;;;;;;;13.98;3.60;;;;;;;15.99;100.00;99993.53;4955937;28;20240;-76
2023/07/23 02:01:21;;;;;;;7.18;2.15;;;;;;;15.88;100.00;99985.75;4963814;28;20307;-75
2023/07/23 02:03:47;;;;;;;11.90;3.10;;;;;;;15.85;100.00;99992.91;4960517;28;20222;-77
2023/07/23 02:06:14;;;;;;;6.97;2.00;;;;;;;15.81;100.00;99993.88;4968244;28;20311;-76
2023/07/23 02:08:41;;;;;;;9.60;2.80;;;;;;;15.77;100.00;99987.72;4948858;28;20236;-83
2023/07/23 02:11:07;;;;;;;10.23;2.83;;;;;;;15.70;100.00;99996.75;4957461;28;20701;-77
2023/07/23 02:13:34;;;;;;;8.25;2.28;;;;;;;15.66;100.00;100001.28;4959919;28;20225;-79
2023/07/23 02:16:01;;;;;;;10.88;3.00;;;;;;;15.66;100.00;100008.38;4955989;28;20236;-76
2023/07/23 02:18:28;;;;;;;9.90;2.70;;;;;;;15.60;100.00;100025.38;4957707;28;20254;-80
2023/07/23 02:20:55;;;;;;;14.70;3.97;;;;;;;15.49;100.00;100029.94;4955151;28;20320;-77
2023/07/23 02:23:21;;;;;;;9.70;2.70;;;;;;;15.43;100.00;100040.72;4960380;28;20225;-77
2023/07/23 02:25:49;;;;;;;13.88;3.72;;;;;;;15.16;100.00;100033.16;4957739;28;20225;-77
2023/07/23 02:28:16;;;;;;;11.02;3.10;;;;;;;15.20;100.00;100050.88;4962567;28;20249;-76
2023/07/23 02:30:43;;;;;;;9.07;2.58;;;;;;;15.24;100.00;100053.44;4963497;28;20545;-76
2023/07/23 02:33:10;;;;;;;8.48;2.42;;;;;;;15.03;100.00;100062.66;4958899;28;20237;-76
2023/07/23 02:35:37;;;;;;;9.75;2.72;;;;;;;15.14;100.00;100072.28;4963540;28;20224;-77
2023/07/23 02:38:04;;;;;;;8.45;2.38;;;;;;;15.24;100.00;100082.75;4968633;28;20251;-77
2023/07/23 02:40:33;;;;;;;10.80;2.95;;;;;;;15.09;100.00;100076.78;4960376;28;20712;-77
2023/07/23 02:43:01;;;;;;;17.88;4.68;;;;;;;15.07;100.00;100090.13;4958148;28;20232;-77
2023/07/23 02:45:29;;;;;;;7.00;2.00;;;;;;;15.16;100.00;100100.63;4958004;28;20229;-77
2023/07/23 02:47:56;;;;;;;19.95;4.75;;;;;;;15.13;100.00;100089.16;4955185;28;20252;-78
2023/07/23 02:50:23;;;;;;;8.32;2.30;;;;;;;14.96;100.00;100102.72;4941734;28;20798;-78
2023/07/23 02:52:50;;;;;;;15.35;3.83;;;;;;;14.86;100.00;100095.75;4957029;28;20244;-76
2023/07/23 02:55:16;;;;;;;6.35;1.90;;;;;;;14.87;100.00;100110.84;4958321;28;20237;-83
2023/07/23 02:57:43;;;;;;;7.57;2.15;;;;;;;14.87;100.00;100111.72;4946743;28;20229;-80
2023/07/23 03:00:11;;;;;;;10.50;2.70;;;;;;;14.75;100.00;100114.53;4960884;28;20312;-76
2023/07/23 03:02:38;;;;;;;8.43;2.30;;;;;;;14.60;100.00;100112.94;4960319;28;20324;-77
2023/07/23 03:05:05;;;;;;;8.68;2.28;;;;;;;14.53;100.00;100118.38;4953136;28;20233;-80
2023/07/23 03:07:33;;;;;;;11.52;3.10;;;;;;;14.52;100.00;100125.47;4959375;28;20229;-77
2023/07/23 03:10:00;;;;;;;12.82;3.08;;;;;;;14.56;100.00;100131.63;4955719;28;20230;-76
2023/07/23 03:12:27;;;;;;;7.88;2.13;;;;;;;14.55;100.00;100137.84;4964063;28;20313;-79
2023/07/23 03:14:53;;;;;;;10.50;2.67;;;;;;;14.57;100.00;100144.94;4961754;28;20232;-83
2023/07/23 03:17:20;;;;;;;9.57;2.63;;;;;;;14.54;100.00;100144.97;4959912;28;20240;-80
2023/07/23 03:19:47;;;;;;;13.68;3.47;;;;;;;14.59;100.00;100160.88;4958951;28;20253;-77
2023/07/23 03:22:13;;;;;;;6.50;1.88;;;;;;;14.48;100.00;100153.00;4963168;28;20236;-76
2023/07/23 03:24:40;;;;;;;10.80;3.08;;;;;;;14.33;100.00;100151.38;4962805;28;20221;-77
2023/07/23 03:27:07;;;;;;;9.32;2.50;;;;;;;14.29;100.00;100162.03;4959157;28;20256;-77
2023/07/23 03:29:33;;;;;;;8.85;2.35;;;;;;;14.24;100.00;100161.19;4960646;28;20717;-77
2023/07/23 03:32:00;;;;;;;17.92;4.25;;;;;;;14.16;100.00;100171.91;4943622;28;20244;-77
2023/07/23 03:34:27;;;;;;;9.68;2.47;;;;;;;14.27;100.00;100177.13;4947319;28;20236;-78
2023/07/23 03:36:53;;;;;;;11.20;2.92;;;;;;;14.23;100.00;100176.28;4960609;28;20232;-77
2023/07/23 03:39:20;;;;;;;9.02;2.30;;;;;;;14.11;100.00;100187.03;4961147;28;20328;-77
2023/07/23 03:41:47;;;;;;;16.13;3.88;;;;;;;14.13;100.00;100189.66;4960060;28;20699;-77
2023/07/23 03:44:14;;;;;;;11.38;3.00;;;;;;;14.12;100.00;100195.88;4947377;28;20237;-79
2023/07/23 03:46:47;;;;;;;14.15;3.67;;;;;;;14.14;100.00;100208.28;4959414;28;20252;-76
2023/07/23 03:49:14;;;;;;;9.45;2.38;;;;;;;14.24;100.00;100211.72;4952986;28;20240;-80
2023/07/23 03:51:41;;;;;;;8.27;2.10;;;;;;;14.18;100.00;100215.31;4944760;28;20283;-77
2023/07/23 03:54:07;;;;;;;10.80;2.67;;;;;;;14.23;100.00;100220.59;4955177;28;20607;-76
2023/07/23 03:56:34;;;;;;;11.25;2.83;;;;;;;14.17;100.00;100218.00;4960398;28;20260;-81
2023/07/23 03:59:02;;;;;;;68.00;12.30;;;;;;;14.18;100.00;100228.63;4947731;28;20225;-83
2023/07/23 04:01:29;;;;;;;8.93;2.50;;;;;;;14.12;100.00;100222.47;4940206;28;20252;-83
2023/07/23 04:03:56;;;;;;;50.53;9.48;;;;;;;14.25;100.00;100234.75;4956918;28;20289;-77
2023/07/23 04:06:25;;;;;;;9.35;2.50;;;;;;;14.16;100.00;100230.41;4962090;28;20241;-76
2023/07/23 04:08:51;;;;;;;41.72;7.00;;;;;;;14.08;100.00;100234.91;4948504;28;20698;-75
2023/07/23 04:11:18;;;;;;;11.45;3.05;;;;;;;14.10;100.00;100238.44;4954267;28;20237;-75
2023/07/23 04:13:45;;;;;;;16.58;4.35;;;;;;;14.14;100.00;100242.84;4951928;28;20717;-76
2023/07/23 04:16:11;;;;;;;12.77;4.05;;;;;;;14.00;100.00;100234.09;4922196;28;20237;-76
2023/07/23 04:18:49;;;;;;;13.45;3.58;;;;;;;14.13;100.00;100258.81;4966283;28;20232;-76
2023/07/23 04:21:18;;;;;;;12.27;3.30;;;;;;;14.06;100.00;100258.84;4960070;28;20714;-76
2023/07/23 04:23:48;;;;;;;9.00;2.47;;;;;;;14.16;100.00;100253.47;4956372;28;20225;-76
2023/07/23 04:26:15;;;;;;;9.80;2.70;;;;;;;14.20;100.00;100269.38;4944603;28;20244;-76
2023/07/23 04:28:42;;;;;;;12.60;3.35;;;;;;;14.23;100.00;100271.13;4962592;28;20221;-76
2023/07/23 04:31:10;;;;;;;15.48;3.88;;;;;;;14.19;100.00;100274.72;4953523;28;20233;-76
2023/07/23 04:33:37;;;;;;;8.73;2.42;;;;;;;14.41;100.00;100281.66;4955946;28;20237;-76
2023/07/23 04:36:05;;;;;;;26.00;6.30;;;;;;;14.52;100.00;100289.56;4953518;28;21372;-75
2023/07/23 04:38:33;;;;;;;11.57;3.15;;;;;;;14.62;100.00;100294.78;4955834;28;20240;-76
2023/07/23 04:40:59;;;;;;;35.85;6.80;;;;;;;14.71;100.00;100288.50;4953632;28;20315;-76
2023/07/23 04:43:26;;;;;;;14.30;3.78;;;;;;;14.89;100.00;100287.41;4956632;28;20233;-77
2023/07/23 04:45:53;;;;;;;48.05;8.27;;;;;;;14.95;100.00;100290.00;4949314;28;20237;-76
2023/07/23 04:48:20;;;;;;;14.20;3.88;;;;;;;14.97;100.00;100288.22;4962636;28;20232;-77
2023/07/23 04:50:57;;;;;;;18.33;4.65;;;;;;;15.09;100.00;100285.41;4949476;28;20689;-75
2023/07/23 04:53:25;;;;;;;11.68;3.17;;;;;;;15.26;100.00;100286.09;4942513;28;20248;-76
2023/07/23 04:55:57;;;;;;;29.00;6.03;;;;;;;15.38;100.00;100259.28;4961197;28;20225;-76
2023/07/23 04:58:24;;;;;;;11.32;3.10;;;;;;;15.61;100.00;100247.47;4958752;28;20225;-76
2023/07/23 05:00:51;;;;;;;48.63;8.38;;;;;;;15.79;100.00;100239.22;4951883;28;20252;-76
2023/07/23 05:03:18;;;;;;;9.35;2.53;;;;;;;16.02;100.00;100232.63;4958549;28;20232;-77
2023/07/23 05:05:49;;;;;;;10.50;2.92;;;;;;;16.16;100.00;100230.63;4959423;28;20303;-76
2023/07/23 05:08:17;;;;;;;8.73;2.30;;;;;;;16.18;100.00;100221.69;4963510;28;20229;-76
2023/07/23 05:10:44;;;;;;;9.18;2.50;;;;;;;16.21;100.00;100228.75;4960239;28;20225;-76
2023/07/23 05:13:14;;;;;;;9.75;2.88;;;;;;;16.35;100.00;100217.81;4958701;28;20236;-76
2023/07/23 05:15:41;;;;;;;9.63;2.63;;;;;;;16.49;100.00;100224.69;4971955;28;20235;-77
2023/07/23 05:18:08;;;;;;;10.77;2.88;;;;;;;16.55;100.00;100223.69;4945677;28;20596;-75
2023/07/23 05:20:35;;;;;;;9.38;2.70;;;;;;;16.70;100.00;100210.06;4963647;28;20241;-75
2023/07/23 05:23:02;;;;;;;14.55;3.72;;;;;;;16.73;100.00;100220.69;4947886;28;20240;-76
2023/07/23 05:25:28;;;;;;;8.05;2.25;;;;;;;16.83;100.00;100200.03;4965783;28;20221;-76
2023/07/23 05:27:55;;;;;;;20.83;5.10;;;;;;;16.88;100.00;100201.69;4961197;28;20236;-76
2023/07/23 05:30:23;;;;;;;9.35;2.60;;;;;;;16.95;100.00;100182.00;4957271;28;20221;-76
2023/07/23 05:32:50;;;;;;;23.98;6.38;;;;;;;17.02;100.00;100176.53;4948947;28;20389;-75
2023/07/23 05:35:17;;;;;;;9.30;2.58;;;;;;;17.13;100.00;100177.16;4961457;28;20229;-77
2023/07/23 05:37:44;;;;;;;12.05;3.33;;;;;;;17.22;100.00;100175.16;4967538;28;20233;-75
2023/07/23 05:40:11;;;;;;;10.15;2.72;;;;;;;17.37;100.00;100168.59;4963209;28;20229;-76
2023/07/23 05:45:08;;;;;;;10.48;2.67;;;;;;;17.56;100.00;100145.88;4972279;28;20224;-84
2023/07/23 05:47:35;;;;;;;11.18;2.85;;;;;;;17.67;100.00;100148.31;4978130;28;20236;-83
2023/07/23 05:50:02;;;;;;;54.92;10.30;;;;;;;17.80;100.00;100136.38;4928755;28;20224;-83
2023/07/23 05:52:29;;;;;;;8.25;2.35;;;;;;;17.89;100.00;100129.94;4973890;28;20397;-82
2023/07/23 05:54:56;;;;;;;50.05;8.93;;;;;;;18.05;100.00;100117.91;4953388;28;20228;-82
2023/07/23 05:57:23;;;;;;;9.35;2.67;;;;;;;18.25;100.00;100119.19;4985112;28;20235;-82
2023/07/23 05:59:50;;;;;;;42.35;7.45;;;;;;;18.37;100.00;100108.16;4966049;28;20365;-79
2023/07/23 06:02:17;;;;;;;8.88;2.45;;;;;;;18.34;100.00;100082.34;4964697;28;20217;-81
2023/07/23 06:04:44;;;;;;;9.60;2.58;;;;;;;18.40;100.00;100079.50;4979117;28;20709;-79
2023/07/23 06:07:13;;;;;;;8.80;2.53;;;;;;;18.52;100.00;100075.59;4979812;28;20236;-81
2023/07/23 06:09:40;;;;;;;9.88;2.70;;;;;;;18.69;100.00;100073.31;4979794;28;20228;-82
2023/07/23 06:12:07;;;;;;;8.38;2.38;;;;;;;19.01;100.00;100079.50;4968317;28;20232;-82
2023/07/23 06:14:34;;;;;;;8.13;2.20;;;;;;;19.15;100.00;100056.69;4983103;28;20239;-83
2023/07/23 06:17:01;;;;;;;43.83;7.70;;;;;;;19.29;100.00;100040.16;4975986;28;20291;-82
2023/07/23 06:19:28;;;;;;;9.35;2.67;;;;;;;19.48;100.00;100021.66;4975962;28;20224;-82
2023/07/23 06:21:54;;;;;;;48.38;9.93;;;;;;;19.79;100.00;100017.03;4976029;28;20227;-82
2023/07/23 06:24:21;;;;;;;8.25;2.33;;;;;;;20.00;100.00;99995.72;4984482;28;20234;-75
2023/07/23 06:26:48;;;;;;;36.20;7.13;;;;;;;20.07;100.00;99976.66;4975057;28;20220;-76
2023/07/23 06:29:14;;;;;;;9.00;2.60;;;;;;;20.35;100.00;99984.56;4985383;28;20235;-78
2023/07/23 06:31:41;;;;;;;7.18;2.10;;;;;;;20.48;100.00;99952.75;4979428;28;20239;-76
2023/07/23 06:34:09;;;;;;;7.55;2.00;;;;;;;20.49;100.00;99924.97;4975155;28;20232;-76
2023/07/23 06:36:36;;;;;;;5.35;1.63;;;;;;;20.75;100.00;99937.34;4956998;28;20239;-76
2023/07/23 06:39:02;;;;;;;47.33;7.97;;;;;;;20.99;100.00;99928.31;4974909;28;20243;-76
2023/07/23 06:41:29;;;;;;;6.90;1.95;;;;;;;21.39;100.00;99946.34;4979770;28;20286;-77
2023/07/23 06:43:56;;;;;;;21.38;4.30;;;;;;;21.52;100.00;99898.25;4952355;28;20715;-76
2023/07/23 06:46:23;;;;;;;6.50;1.77;;;;;;;21.68;100.00;99887.69;4973351;28;20234;-77
2023/07/23 06:48:50;;;;;;;46.80;8.50;;;;;;;21.98;100.00;99867.44;4955310;28;20224;-77
2023/07/23 06:51:17;;;;;;;5.95;1.80;;;;;;;22.14;100.00;99818.31;4958967;28;20243;-77
2023/07/23 06:53:44;;;;;;;10.35;3.05;;;;;;;22.29;100.00;99804.97;4949249;28;20232;-78
2023/07/23 06:56:13;;;;;;;9.50;2.67;;;;;;;22.42;100.00;99789.06;4982326;28;20232;-77
2023/07/23 06:58:40;;;;;;;8.63;2.40;;;;;;;22.67;100.00;99746.47;4980402;28;20701;-78
2023/07/23 07:01:10;;;;;;;13.70;3.63;;;;;;;22.74;100.00;99682.31;4976761;28;20285;-77
2023/07/23 07:03:37;;;;;;;8.98;2.63;;;;;;;22.73;100.00;99644.66;4982110;28;20548;-78
2023/07/23 07:06:04;;;;;;;8.55;2.45;;;;;;;22.61;100.00;99625.50;4973909;28;20244;-76
2023/07/23 07:08:31;;;;;;;10.35;2.80;;;;;;;22.62;100.00;99577.88;4987879;28;20774;-78
2023/07/23 07:11:00;;;;;;;50.97;9.32;;;;;;;22.56;100.00;99546.72;4949005;28;20239;-76
2023/07/23 07:13:28;;;;;;;9.18;2.50;;;;;;;22.77;100.00;99592.34;4968874;28;20231;-77
2023/07/23 07:15:54;;;;;;;35.13;6.53;;;;;;;22.68;100.00;99556.84;4970099;28;20224;-78
2023/07/23 07:18:22;;;;;;;7.28;2.08;;;;;;;22.48;100.00;99531.94;4974608;28;20535;-76
2023/07/23 07:20:59;;;;;;;25.83;5.75;;;;;;;22.41;100.00;99501.75;4974186;28;20220;-77
2023/07/23 07:23:27;;;;;;;9.15;2.70;;;;;;;22.57;100.00;99520.66;4970770;28;20236;-76
2023/07/23 07:26:00;;;;;;;93.47;19.40;;;;;;;22.34;100.00;99473.41;4936946;28;20227;-77
2023/07/23 07:28:30;;;;;;;12.45;3.80;;;;;;;22.45;100.00;99489.00;4855779;28;20316;-78
2023/07/23 07:33:32;;;;;;;16.08;4.75;;;;;;;22.39;100.00;99475.88;5246529;23;20254;-76
2023/07/23 07:36:00;;;;;;;18.92;4.70;;;;;;;22.39;100.00;99467.78;4937227;28;20237;-76
2023/07/23 07:38:27;;;;;;;14.77;4.10;;;;;;;22.34;100.00;99449.19;4968031;28;20247;-79
2023/07/23 07:40:57;;;;;;;66.75;13.30;;;;;;;22.34;100.00;99455.44;4953196;28;20229;-79
2023/07/23 07:43:25;;;;;;;11.52;3.35;;;;;;;22.29;100.00;99427.00;4967067;28;20284;-79
2023/07/23 07:45:58;;;;;;;53.83;11.45;;;;;;;22.24;100.00;99429.97;4948666;28;20224;-79
2023/07/23 07:48:26;;;;;;;16.92;4.65;;;;;;;22.29;100.00;99416.25;4960447;28;20231;-79
2023/07/23 07:51:00;;;;;;;62.75;13.18;;;;;;;22.20;100.00;99420.31;4957792;28;20251;-79
2023/07/23 07:53:31;;;;;;;12.07;3.47;;;;;;;22.12;100.00;99419.00;4943239;28;20232;-80
2023/07/23 07:55:58;;;;;;;89.45;19.80;;;;;;;22.20;100.00;99412.22;4947710;28;20228;-78
2023/07/23 07:58:27;;;;;;;10.10;3.15;;;;;;;22.15;100.00;99408.91;5002182;23;20250;-83
2023/07/23 08:00:58;;;;;;;85.50;18.42;;;;;;;22.09;100.00;99392.19;4964751;28;20232;-89
2023/07/23 08:03:28;;;;;;;12.35;3.30;;;;;;;22.03;100.00;99388.00;4953160;28;20253;-87
2023/07/23 08:05:58;;;;;;;56.20;11.38;;;;;;;22.04;100.00;99395.13;4910538;28;20229;-86
2023/07/23 08:08:30;;;;;;;9.73;2.75;;;;;;;22.02;100.00;99391.63;4957902;28;20305;-85
2023/07/23 08:10:59;;;;;;;65.28;13.32;;;;;;;22.09;100.00;99411.03;4949513;28;20260;-87
2023/07/23 08:13:26;;;;;;;10.07;2.70;;;;;;;22.14;100.00;99422.47;4946150;28;20304;-83
2023/07/23 08:15:55;;;;;;;45.35;8.65;;;;;;;22.10;100.00;99399.31;4951438;28;20228;-84
2023/07/23 08:18:23;;;;;;;10.02;2.90;;;;;;;22.08;100.00;99403.91;4966267;28;20234;-84
2023/07/23 08:20:50;;;;;;;55.45;14.00;;;;;;;22.11;100.00;99409.16;4961004;28;20220;-84
2023/07/23 08:23:17;;;;;;;7.88;2.40;;;;;;;22.12;100.00;99413.59;4958072;28;20325;-86
2023/07/23 08:25:48;;;;;;;9.30;2.80;;;;;;;22.17;100.00;99412.41;4953127;28;20229;-85
2023/07/23 08:28:25;;;;;;;10.40;3.22;;;;;;;22.12;100.00;99416.28;4960555;28;20663;-85
2023/07/23 08:30:52;;;;;;;47.25;11.10;;;;;;;22.21;100.00;99426.56;4963158;28;20248;-87
2023/07/23 08:33:19;;;;;;;8.38;2.42;;;;;;;22.32;100.00;99437.63;4967762;28;20584;-89
2023/07/23 08:35:46;;;;;;;9.15;2.58;;;;;;;22.48;100.00;99448.41;4953411;28;20290;-84
2023/07/23 08:38:15;;;;;;;6.90;2.17;;;;;;;22.77;100.00;99465.66;4958206;28;20235;-86
2023/07/23 08:40:44;;;;;;;8.50;2.60;;;;;;;22.90;100.00;99464.91;4936266;28;20259;-86
2023/07/23 08:43:55;;;;;;;8.65;2.80;;;;;;;23.04;100.00;99461.41;4955523;28;20239;-85
2023/07/23 08:46:27;;;;;;;8.32;2.72;;;;;;;22.91;100.00;99455.00;4955979;28;20324;-88
2023/07/23 08:49:03;;;;;;;41.95;8.68;;;;;;;22.99;100.00;99463.50;4955155;28;20241;-86
2023/07/23 08:51:41;;;;;;;7.35;2.20;;;;;;;23.17;100.00;99477.75;4952826;28;20228;-87
2023/07/23 08:54:08;;;;;;;6.22;2.00;;;;;;;23.21;100.00;99465.84;4961045;28;20240;-87
2023/07/23 08:56:37;;;;;;;6.40;2.30;;;;;;;23.23;100.00;99447.72;4947922;28;20225;-87
2023/07/23 08:59:05;;;;;;;24.23;5.13;;;;;;;23.39;100.00;99442.31;4946407;28;20229;-85
2023/07/23 09:01:40;;;;;;;10.07;2.70;;;;;;;23.50;100.00;99458.75;4953117;28;20221;-87
2023/07/23 09:04:09;;;;;;;7.05;2.47;;;;;;;23.59;100.00;99440.22;4963840;28;20329;-86
2023/07/23 09:06:36;;;;;;;5.32;1.92;;;;;;;23.57;100.00;99416.97;4950014;28;20234;-89
2023/07/23 09:09:05;;;;;;;45.17;8.88;;;;;;;23.44;100.00;99380.88;4966265;28;20232;-86
2023/07/23 09:11:34;;;;;;;6.68;2.05;;;;;;;23.55;100.00;99414.38;4963834;28;20232;-89
2023/07/23 09:14:03;;;;;;;89.15;21.40;;;;;;;23.36;100.00;99388.53;4911640;28;20335;-89
2023/07/23 09:16:30;;;;;;;17.02;4.93;;;;;;;23.39;100.00;99401.84;4896649;28;20232;-88
2023/07/23 09:19:01;;;;;;;116.15;29.25;;;;;;;23.32;100.00;99379.75;4887963;28;20290;-87
2023/07/23 09:21:28;;;;;;;10.07;3.47;;;;;;;23.27;100.00;99382.72;4929456;28;20232;-85
2023/07/23 09:23:57;;;;;;;55.50;12.95;;;;;;;23.35;100.00;99384.09;4947336;28;20240;-86
2023/07/23 09:26:27;;;;;;;7.97;2.55;;;;;;;23.25;100.00;99357.66;4942997;28;20609;-87
2023/07/23 09:28:57;;;;;;;41.28;9.95;;;;;;;23.27;100.00;99328.78;4949799;28;20231;-88
2023/07/23 09:31:29;;;;;;;9.70;3.28;;;;;;;23.37;100.00;99323.69;4957444;28;20327;-83
2023/07/23 09:33:58;;;;;;;45.55;10.80;;;;;;;23.39;100.00;99313.66;4951947;28;20236;-81
2023/07/23 09:36:26;;;;;;;7.43;2.92;;;;;;;23.44;100.00;99325.09;4958816;28;20239;-81
2023/07/23 09:39:05;;;;;;;43.50;9.63;;;;;;;23.41;100.00;99305.50;4943729;28;20296;-80
2023/07/23 09:41:34;;;;;;;6.45;2.08;;;;;;;23.50;100.00;99303.13;4931290;28;20239;-82
2023/07/23 09:44:08;;;;;;;46.90;10.50;;;;;;;23.75;100.00;99321.38;4952028;28;20232;-81
2023/07/23 09:46:36;;;;;;;6.10;2.17;;;;;;;23.88;100.00;99325.03;4959427;28;20228;-82
2023/07/23 09:49:03;;;;;;;46.05;9.13;;;;;;;24.08;100.00;99318.38;4943240;28;20286;-82
2023/07/23 09:51:33;;;;;;;5.40;1.92;;;;;;;24.25;100.00;99287.56;4968485;28;20228;-82
2023/07/23 09:54:04;;;;;;;38.38;7.03;;;;;;;24.33;100.00;99290.66;4957668;28;20251;-80
2023/07/23 09:56:35;;;;;;;7.63;2.60;;;;;;;24.29;100.00;99261.25;4960292;28;20295;-79
2023/07/23 09:59:03;;;;;;;47.75;11.68;;;;;;;24.20;100.00;99241.06;4941487;28;20308;-82
2023/07/23 10:01:30;;;;;;;8.02;2.78;;;;;;;24.32;100.00;99247.53;4947970;28;20235;-82
2023/07/23 10:03:58;;;;;;;43.47;10.43;;;;;;;24.23;99.08;99206.63;4939248;28;20233;-81
2023/07/23 10:06:25;;;;;;;6.00;2.10;;;;;;;24.34;98.97;99208.63;4951333;28;20723;-82
2023/07/23 10:08:52;;;;;;;41.13;9.35;;;;;;;24.53;99.64;99228.06;4953349;28;20232;-82
2023/07/23 10:11:19;;;;;;;6.53;2.25;;;;;;;24.60;97.46;99185.25;4962004;28;20229;-79
2023/07/23 10:13:48;;;;;;;7.75;2.58;;;;;;;24.57;97.65;99175.53;4959537;28;20335;-77
2023/07/23 10:16:19;;;;;;;8.85;3.22;;;;;;;24.62;94.22;99148.19;4962015;28;20238;-79
2023/07/23 10:18:47;;;;;;;8.43;2.75;;;;;;;24.68;87.13;99061.25;4951957;28;20283;-80
2023/07/23 10:21:14;;;;;;;7.38;2.83;;;;;;;24.73;84.16;99021.28;4946275;28;20231;-79
2023/07/23 10:23:41;;;;;;;8.73;2.90;;;;;;;24.73;84.59;99018.56;4941394;28;20232;-79
2023/07/23 10:26:21;;;;;;;7.97;2.88;;;;;;;24.83;86.18;99035.00;4933965;28;20233;-84
2023/07/23 10:28:56;;;;;;;25.48;6.03;;;;;;;24.85;84.47;99000.59;4955308;28;20246;-87
2023/07/23 10:31:32;;;;;;;10.20;3.20;;;;;;;24.95;81.50;98969.22;4962496;28;20232;-85
2023/07/23 10:33:59;;;;;;;31.67;7.20;;;;;;;25.00;82.99;98987.84;4956310;28;20237;-85
2023/07/23 10:36:26;;;;;;;8.05;2.67;;;;;;;25.09;84.66;98995.28;4966293;28;20230;-86
2023/07/23 10:39:17;;;;;;;34.90;8.30;;;;;;;25.25;84.18;99004.00;4940605;28;20708;-87
2023/07/23 10:41:55;;;;;;;10.82;3.65;;;;;;;25.36;83.03;98976.13;4959454;28;20232;-83
2023/07/23 10:44:28;;;;;;;6.15;2.10;;;;;;;25.48;84.46;98991.44;4965893;28;20227;-86
2023/07/23 10:46:58;;;;;;;19.80;5.88;;;;;;;25.48;81.55;98959.84;4954675;28;20236;-84
2023/07/23 10:49:30;;;;;;;7.03;2.40;;;;;;;25.18;83.43;98924.25;4957157;28;20224;-85
2023/07/23 10:52:13;;;;;;;40.50;9.00;;;;;;;25.32;84.31;98950.28;4955105;28;20242;-85
2023/07/23 10:54:39;;;;;;;9.52;3.05;;;;;;;25.31;77.59;98865.53;4942672;28;20232;-84
2023/07/23 10:57:06;;;;;;;6.20;2.17;;;;;;;25.09;72.89;98778.88;4942236;28;20259;-88
2023/07/23 10:59:37;;;;;;;10.88;3.70;;;;;;;25.19;75.00;98815.94;4953485;28;20228;-88
2023/07/23 11:02:05;;;;;;;17.65;4.35;;;;;;;25.13;75.98;98804.72;4915053;28;20430;-83
2023/07/23 11:04:36;;;;;;;7.70;2.60;;;;;;;25.27;79.63;98861.34;4954620;28;20236;-83
2023/07/23 11:07:04;;;;;;;52.17;10.85;;;;;;;25.13;78.79;98837.19;4954006;28;20291;-86
2023/07/23 11:09:35;;;;;;;10.48;3.30;;;;;;;25.22;80.56;98852.72;4961428;28;20231;-83
2023/07/23 11:12:05;;;;;;;104.93;24.45;;;;;;;25.16;80.21;98842.34;4914446;28;20348;-84
2023/07/23 11:14:36;;;;;;;6.25;2.00;;;;;;;25.24;79.74;98841.78;4932860;28;20319;-84
2023/07/23 11:17:04;;;;;;;59.85;11.35;;;;;;;25.34;78.62;98837.38;4944525;28;20220;-86
2023/07/23 11:19:31;;;;;;;7.47;2.45;;;;;;;25.47;79.53;98866.09;4963247;28;20235;-84
2023/07/23 11:22:04;;;;;;;51.50;13.27;;;;;;;25.55;79.39;98851.97;4956597;28;20233;-84
2023/07/23 11:24:32;;;;;;;8.32;2.55;;;;;;;25.65;76.96;98835.88;4948455;28;20244;-85
2023/07/23 11:27:01;;;;;;;94.15;20.80;;;;;;;26.01;75.71;98859.25;4915409;28;20229;-85
2023/07/23 11:29:29;;;;;;;9.38;2.80;;;;;;;26.45;75.84;98880.97;4950989;28;20299;-85